Headquarters, Valles Caldera, New Mexico Weather observations

Data are for 10 minute period ending at time listed.
 Day   Time   Solar   Ave.   Ave.  Ave.  Vector  Max.   Baro.   Total    
  of    of     Rad.   Air    Rel.  Wind   Wind   Wind  Press.  Precip.   
Year   Day            Temp.  Hum.  Speed  Dir.   Gust                    
2017   (MST)  Kw/m2    F      %     mph   deg.    mph    mb.     in.     
-------------------------------------------------------------------------
 294    0:00   0.00   46.3    49    7.2   245    29.8   734.8    0.00 
 294    0:10   0.00   46.1    50    6.8   223    20.3   734.7    0.00 
 294    0:20   0.00   46.0    50   11.3   228    25.0   734.7    0.00 
 294    0:30   0.00   45.4    52    7.8   210    13.1   734.7    0.00 
 294    0:40   0.00   45.0    53    6.3   240    21.5   734.8    0.00 
 294    0:50   0.00   45.0    53    7.4   242    15.5   734.7    0.00 
 294    1:00   0.00   45.0    53    8.4   226    30.4   734.7    0.00 
 294    1:10   0.00   45.0    54    8.2   234    33.4   734.7    0.00 
 294    1:20   0.00   44.8    54    9.7   209    19.1   734.8    0.00 
 294    1:30   0.00   44.6    55    7.8   229    17.3   734.6    0.00 
 294    1:40   0.00   44.4    56    9.4   221    22.7   734.6    0.00 
 294    1:50   0.00   44.2    56   10.5   232    22.1   734.6    0.00 
 294    2:00   0.00   43.9    57    9.5   213    21.5   734.5    0.00 
 294    2:10   0.00   43.5    58    9.2   231    21.5   734.4    0.00 
 294    2:20   0.00   43.3    59    9.4   226    25.6   734.3    0.00 
 294    2:30   0.00   43.0    60    9.9   236    20.3   734.3    0.00 
 294    2:40   0.00   43.1    61   10.8   253    19.7   734.3    0.00 
 294    2:50   0.00   43.0    62   10.3   253    20.9   734.2    0.00 
 294    3:00   0.00   42.8    63   10.1   259    21.5   734.3    0.00 
 294    3:10   0.00   42.9    63   11.5   254    22.7   734.3    0.00 
 294    3:20   0.00   42.8    63    6.8   253    12.5   734.4    0.00 
 294    3:30   0.00   42.7    64    8.7   243    16.1   734.5    0.00 
 294    3:40   0.00   42.5    64    5.3   250    11.9   734.5    0.00 
 294    3:50   0.00   42.2    65    7.4   221    16.7   734.6    0.00 
 294    4:00   0.00   42.0    67    6.6   211    13.7   734.7    0.00 
 294    4:10   0.00   41.8    68    6.2   248    12.5   734.8    0.00 
 294    4:20   0.00   41.6    69    6.4   252    20.3   734.8    0.00 
 294    4:30   0.00   40.9    73    7.1   240    13.7   734.9    0.00 
 294    4:40   0.00   40.5    74    7.8   245    14.9   734.9    0.00 
 294    4:50   0.00   40.5    74    7.4   238    13.7   734.9    0.00 
 294    5:00   0.00   40.3    74    8.5   244    14.3   735.0    0.00 
 294    5:10   0.00   40.2    73    7.9   236    11.9   735.1    0.00 
 294    5:20   0.00   39.8    73    5.3   247     9.6   735.1    0.00 
 294    5:30   0.00   39.4    72    6.4   252    15.5   735.2    0.00 
 294    5:40   0.00   38.7    73    4.4   271    11.9   735.3    0.00 
 294    5:50   0.00   38.8    70    5.5   260     9.0   735.4    0.00 
 294    6:00   0.00   38.4    69    4.2   288     8.4   735.6    0.00 
 294    6:10   0.00   38.0    68    4.6   279     9.6   735.6    0.00 
 294    6:20   0.00   38.5    67    5.0   286    10.2   735.7    0.00 
 294    6:30   0.01   38.1    67    5.9   260     9.6   735.9    0.00 
 294    6:40   0.01   38.2    66    3.6   286     9.6   736.0    0.00 
 294    6:50   0.03   38.8    64    6.6   290    14.3   736.0    0.00 
 294    7:00   0.09   40.5    60    5.1   310    14.3   736.1    0.00 
 294    7:10   0.10   42.0    57    4.8   302    10.8   736.3    0.00 
 294    7:20   0.12   41.9    57    5.9   309    14.3   736.4    0.00 
 294    7:30   0.19   42.7    55    8.2   309    18.5   736.5    0.00 
 294    7:40   0.23   43.6    53    5.6   301    11.3   736.6    0.00 
 294    7:50   0.26   44.2    52    8.2   306    14.3   736.8    0.00 
 294    8:00   0.29   44.1    51    8.2   311    14.9   736.9    0.00 
 294    8:10   0.33   44.8    50    7.2   314    13.1   736.9    0.00 
 294    8:20   0.36   45.8    48    5.6   281    13.7   736.9    0.00 
 294    8:30   0.40   48.1    44    8.7   229    17.9   737.2    0.00 
 294    8:40   0.43   48.3    44    7.9   236    15.5   737.3    0.00 
 294    8:50   0.47   48.6    44    9.6   248    18.5   737.4    0.00 
 294    9:00   0.50   48.4    44    6.6   224    13.1   737.5    0.00 
 294    9:10   0.53   49.0    42    8.2   272    23.9   737.7    0.00 
 294    9:20   0.56   46.5    44    9.2   302    18.5   737.8    0.00 
 294    9:30   0.57   46.6    44    9.8   308    23.3   737.9    0.00 
 294    9:40   0.60   47.3    42    9.5   269    21.5   737.9    0.00 
 294    9:50   0.63   48.2    40    9.4   293    20.9   738.0    0.00 
 294   10:00   0.66   47.8    42    6.4   291    14.9   738.1    0.00 
 294   10:10   0.69   49.9    38    7.0   223    14.3   738.2    0.00 
 294   10:20   0.71   49.4    38    8.5   286    18.5   738.4    0.00 
 294   10:30   0.69   47.9    38    8.5   302    18.5   738.6    0.00 
 294   10:40   0.70   49.4    37    6.0   267    16.1   738.6    0.00 
 294   10:50   0.72   49.4    34    9.2   300    21.5   738.7    0.00 
 294   11:00   0.76   47.6    34    8.8   302    16.1   739.0    0.00 
 294   11:10   0.77   48.1    33   11.1   250    19.1   738.9    0.00 
 294   11:20   0.73   47.9    32   11.3   253    20.9   738.8    0.00 
 294   11:30   0.75   47.9    31   10.6   261    22.7   738.7    0.00 
 294   11:40   0.75   48.6    29    9.9   225    20.9   738.6    0.00 
 294   11:50   0.75   49.4    29    7.4   255    13.1   738.6    0.00 
 294   12:00   0.75   49.8    28    7.4   247    14.9   738.5    0.00 
 294   12:10   0.75   48.6    26    8.8   299    17.9   738.7    0.00 
 294   12:20   0.74   47.7    26    7.4   264    17.3   738.7    0.00 
 294   12:30   0.74   48.2    25   12.4   228    23.9   738.6    0.00 
 294   12:40   0.73   48.3    23   13.4   230    26.2   738.6    0.00 
 294   12:50   0.72   48.5    22   11.0   238    20.9   738.7    0.00 
 294   13:00   0.72   48.8    21   10.1   250    19.1   738.7    0.00 
 294   13:10   0.71   48.7    20    8.7   242    19.7   738.8    0.00 
 294   13:20   0.69   48.7    18   10.3   236    19.7   738.8    0.00 
 294   13:30   0.68   48.2    19   10.6   240    20.3   738.8    0.00 
 294   13:40   0.66   48.2    18   11.8   240    20.9   738.8    0.00 
 294   13:50   0.64   47.5    17   13.8   244    24.5   738.9    0.00 
 294   14:00   0.62   46.7    16   11.7   257    25.0   739.1    0.00 
 294   14:10   0.60   47.9    16    8.4   241    19.7   739.1    0.00 
 294   14:20   0.58   47.7    15   10.9   223    21.5   739.0    0.00 
 294   14:30   0.55   48.0    14    8.8   236    23.9   739.1    0.00 
 294   14:40   0.53   47.8    14    8.0   254    18.5   739.1    0.00 
 294   14:50   0.50   47.3    15   12.7   231    21.5   739.1    0.00 
 294   15:00   0.47   46.8    15   12.2   231    23.9   739.1    0.00 
 294   15:10   0.44   46.5    14    9.3   246    20.3   739.3    0.00 
 294   15:20   0.41   46.6    15   12.5   238    25.0   739.3    0.00 
 294   15:30   0.37   45.9    14   11.6   239    20.3   739.4    0.00 
 294   15:40   0.34   45.5    14   14.7   237    25.6   739.4    0.00 
 294   15:50   0.31   45.1    14   14.3   235    25.0   739.5    0.00 
 294   16:00   0.27   44.6    14   13.6   231    21.5   739.7    0.00 
 294   16:10   0.24   44.3    14   12.3   233    25.0   739.8    0.00 
 294   16:20   0.20   44.0    14   11.1   242    19.7   740.0    0.00 
 294   16:30   0.06   42.3    16   10.6   244    19.7   740.0    0.00 
 294   16:40   0.02   40.3    18   11.0   241    19.1   740.1    0.00 
 294   16:50   0.01   39.7    18    8.2   249    16.1   740.3    0.00 
 294   17:00   0.01   39.3    19    8.2   264    15.5   740.4    0.00 
 294   17:10   0.01   38.8    19    7.6   269    15.5   740.5    0.00 
 294   17:20   0.01   38.5    19   10.0   255    16.7   740.6    0.00 
 294   17:30   0.00   38.2    18    9.8   259    17.3   740.7    0.00 
 294   17:40   0.00   37.8    18    7.4   277    16.1   740.9    0.00 
 294   17:50   0.00   37.5    18    6.0   298    15.5   741.1    0.00 
 294   18:00   0.00   36.8    19    5.7   277    11.9   741.4    0.00 
 294   18:10   0.00   36.7    18    6.5   288    11.9   741.6    0.00 
 294   18:20   0.00   36.6    19    4.8   317     9.6   741.8    0.00 
 294   18:30   0.00   35.9    20    5.0   309    13.1   742.0    0.00 
 294   18:40   0.00   36.4    19    6.4   320    15.5   742.2    0.00 
 294   18:50   0.00   36.3    19    6.5   310    12.5   742.3    0.00 
 294   19:00   0.00   36.1    20    6.5   311    11.3   742.4    0.00 
 294   19:10   0.00   35.6    20    5.8   312     9.6   742.5    0.00 
 294   19:20   0.00   35.0    21    4.4   306     7.8   742.6    0.00 
 294   19:30   0.00   34.7    21    5.4   299     9.6   742.7    0.00 
 294   19:40   0.00   34.6    21    3.9   309     9.0   742.7    0.00 
 294   19:50   0.00   34.3    20    3.2   296     6.0   742.8    0.00 
 294   20:00   0.00   33.3    23    2.8     3     6.0   742.8    0.00 
 294   20:10   0.00   30.3    29    3.2   351     4.8   742.9    0.00 
 294   20:20   0.00   29.6    28    3.0    34    13.1   742.9    0.00 
 294   20:30   0.00   30.4    27    3.2    68     7.8   743.0    0.00 
 294   20:40   0.00   29.8    29    4.4    64     7.8   743.1    0.00 
 294   20:50   0.00   28.7    30    3.2    32     7.2   743.1    0.00 
 294   21:00   0.00   30.2    27    5.7    79    11.3   743.2    0.00 
 294   21:10   0.00   28.4    31    3.9    60     6.6   743.4    0.00 
 294   21:20   0.00   30.7    24    3.8    10     8.4   743.4    0.00 
 294   21:30   0.00   36.0    17    5.2   330    13.1   743.3    0.00 
 294   21:40   0.00   37.4    15    6.1   330    11.3   743.3    0.00 
 294   21:50   0.00   37.7    15    6.8   304    13.7   743.5    0.00 
 294   22:00   0.00   37.7    15    6.2   300    11.9   743.4    0.00 
 294   22:10   0.00   37.0    16    3.5   323    10.8   743.6    0.00 
 294   22:20   0.00   35.8    17    1.7   356     5.4   743.7    0.00 
 294   22:30   0.00   33.6    21    4.3   342     6.6   743.7    0.00 
 294   22:40   0.00   32.0    24    3.1   351     7.8   743.7    0.00 
 294   22:50   0.00   29.2    27    2.8    22     5.4   743.9    0.00 
 294   23:00   0.00   29.7    26    3.8    22     7.2   744.0    0.00 
 294   23:10   0.00   30.5    25    4.0    17     7.2   744.1    0.00 

Return to Headquarters, Valles Caldera graphs page.


Western Regional Climate Center,wrcc@dri.edu